Time;durP1;ratioP1;P1;durP2;ratioP2;P2;SDS_P1;SDS_P2;PMS_P1;PMS_P2;Temp;Humidity;BMP_temperature;BMP_pressure;BME280_temperature;BME280_humidity;BME280_pressure;Samples;Min_cycle;Max_cycle;Signal;HPM_P1;HPM_P2
2021/04/09 00:00:01;;;;;;;6.67;3.60;;;;;;;1.77;73.00;101358.64;1594083;89;21580;-77
2021/04/09 00:02:29;;;;;;;13.40;4.45;;;;;;;1.75;73.08;101355.18;1590087;89;21692;-77
2021/04/09 00:04:55;;;;;;;13.65;4.20;;;;;;;1.76;73.18;101358.19;1570465;88;21295;-77
2021/04/09 00:07:22;;;;;;;11.55;3.85;;;;;;;1.79;73.23;101355.73;1558606;89;21694;-77
2021/04/09 00:09:49;;;;;;;8.88;4.17;;;;;;;1.84;73.23;101354.20;1583051;89;21811;-77
2021/04/09 00:12:16;;;;;;;7.28;3.08;;;;;;;1.88;73.29;101349.23;1589761;89;21115;-77
2021/04/09 00:14:42;;;;;;;12.47;3.83;;;;;;;1.93;73.32;101348.97;1572758;89;21696;-77
2021/04/09 00:17:27;;;;;;;8.83;3.92;;;;;;;1.99;73.29;101347.02;1577940;89;21684;-77
2021/04/09 00:20:07;;;;;;;6.60;3.95;;;;;;;2.05;73.30;101352.72;1580163;89;21654;-78
2021/04/09 00:22:33;;;;;;;8.73;4.30;;;;;;;2.12;73.32;101353.33;1578222;89;21196;-77
2021/04/09 00:24:59;;;;;;;11.10;3.83;;;;;;;2.17;73.33;101347.55;1575489;89;21596;-77
2021/04/09 00:27:26;;;;;;;12.03;4.25;;;;;;;2.23;73.30;101346.45;1571606;89;26708;-77
2021/04/09 00:29:52;;;;;;;11.57;4.72;;;;;;;2.28;73.28;101350.00;1578615;89;22144;-77
2021/04/09 00:32:19;;;;;;;8.05;3.60;;;;;;;2.33;73.30;101345.90;1564152;89;21783;-77
2021/04/09 00:34:52;;;;;;;10.68;4.35;;;;;;;2.39;73.27;101349.04;1584561;89;21668;-77
2021/04/09 00:37:18;;;;;;;9.30;3.67;;;;;;;2.43;73.24;101347.44;1596354;88;21678;-77
2021/04/09 00:39:44;;;;;;;13.45;4.47;;;;;;;2.47;73.22;101347.58;1559216;89;21273;-77
2021/04/09 00:42:19;;;;;;;8.38;4.05;;;;;;;2.51;73.21;101345.56;1568890;89;21623;-77
2021/04/09 00:44:47;;;;;;;9.73;3.85;;;;;;;2.53;73.24;101337.53;1576858;89;21263;-78
2021/04/09 00:47:14;;;;;;;12.28;4.15;;;;;;;2.57;73.20;101342.31;1570092;89;21717;-78
2021/04/09 00:49:41;;;;;;;10.28;4.25;;;;;;;2.60;73.19;101348.34;1587788;89;21678;-77
2021/04/09 00:52:08;;;;;;;10.60;3.60;;;;;;;2.62;73.19;101344.14;1574173;89;21205;-77
2021/04/09 00:54:36;;;;;;;6.70;3.52;;;;;;;2.65;73.19;101343.37;1567973;89;22447;-77
2021/04/09 00:57:16;;;;;;;9.40;4.05;;;;;;;2.68;73.17;101338.76;1563270;89;21684;-77
2021/04/09 00:59:43;;;;;;;10.05;3.65;;;;;;;2.71;73.17;101333.33;1586923;89;21255;-77
2021/04/09 01:02:10;;;;;;;6.90;3.55;;;;;;;2.73;73.11;101326.98;1582824;89;21692;-77
2021/04/09 01:04:42;;;;;;;7.87;3.90;;;;;;;2.69;73.04;101328.59;1560317;89;21799;-77
2021/04/09 01:07:09;;;;;;;8.50;4.30;;;;;;;2.69;73.06;101334.11;1585023;89;21608;-77
2021/04/09 01:09:36;;;;;;;8.78;3.47;;;;;;;2.68;73.07;101326.86;1585612;88;21223;-77
2021/04/09 01:12:20;;;;;;;6.28;4.00;;;;;;;2.70;73.09;101331.59;1570643;89;21252;-77
2021/04/09 01:14:47;;;;;;;10.55;3.67;;;;;;;2.69;73.07;101326.03;1586820;88;21291;-77
2021/04/09 01:17:36;;;;;;;4.60;3.17;;;;;;;2.67;73.00;101327.68;1573064;89;21514;-78
2021/04/09 01:20:48;;;;;;;9.90;3.58;;;;;;;2.68;73.03;101327.27;1578968;89;21676;-77
2021/04/09 01:23:43;;;;;;;5.80;3.62;;;;;;;2.66;73.06;101328.09;1558917;89;21252;-77
2021/04/09 01:26:46;;;;;;;6.95;3.80;;;;;;;2.66;73.04;101324.27;1588262;89;21772;-78
2021/04/09 01:29:58;;;;;;;11.03;4.42;;;;;;;2.65;73.02;101321.25;1592721;89;21223;-77
2021/04/09 01:32:31;;;;;;;7.30;4.33;;;;;;;2.64;73.06;101314.83;1586519;89;21767;-78
2021/04/09 01:35:04;;;;;;;9.15;3.72;;;;;;;2.65;73.10;101316.55;1575388;88;21660;-78
2021/04/09 01:37:45;;;;;;;10.80;4.00;;;;;;;2.68;73.05;101318.33;1574541;88;21236;-77
2021/04/09 01:40:17;;;;;;;9.81;4.64;;;;;;;2.64;73.00;101314.83;1497030;89;5000511;-75
2021/04/09 01:43:02;;;;;;;9.40;4.47;;;;;;;2.62;73.05;101313.92;1574577;88;21796;-75
2021/04/09 01:45:32;;;;;;;9.55;4.37;;;;;;;2.61;72.99;101313.47;1568068;88;21261;-75
2021/04/09 01:47:59;;;;;;;5.83;3.65;;;;;;;2.60;73.06;101304.11;1586542;89;21730;-75
2021/04/09 01:50:33;;;;;;;9.50;4.55;;;;;;;2.57;72.96;101304.03;1586903;88;21710;-75
2021/04/09 01:53:02;;;;;;;8.20;4.55;;;;;;;2.54;72.99;101295.88;1584985;88;21235;-75
2021/04/09 01:55:31;;;;;;;8.63;4.17;;;;;;;2.53;73.03;101292.00;1587617;88;21401;-75
2021/04/09 01:58:00;;;;;;;10.25;4.17;;;;;;;2.52;73.00;101294.97;1588253;88;21778;-75
2021/04/09 02:00:27;;;;;;;7.40;4.20;;;;;;;2.51;72.99;101289.81;1586663;88;21492;-75
2021/04/09 02:02:54;;;;;;;7.67;4.33;;;;;;;2.49;72.98;101293.61;1587630;88;20961;-75
2021/04/09 02:05:27;;;;;;;6.17;3.80;;;;;;;2.48;73.02;101290.59;1578636;88;21474;-75
2021/04/09 02:07:56;;;;;;;8.58;3.83;;;;;;;2.48;72.99;101290.59;1564718;88;21560;-75
2021/04/09 02:10:42;;;;;;;5.20;3.87;;;;;;;2.46;72.95;101289.69;1589748;88;21165;-76
2021/04/09 02:13:09;;;;;;;8.80;3.75;;;;;;;2.44;72.94;101287.50;1579590;89;21150;-76
2021/04/09 02:15:36;;;;;;;8.00;4.55;;;;;;;2.43;73.00;101288.33;1584413;89;21339;-76
2021/04/09 02:18:03;;;;;;;6.42;4.12;;;;;;;2.45;72.97;101281.98;1580436;88;21427;-76
2021/04/09 02:20:30;;;;;;;9.68;5.47;;;;;;;2.45;72.96;101283.27;1584612;88;21055;-76
2021/04/09 02:22:56;;;;;;;9.78;4.08;;;;;;;2.44;72.93;101281.53;1597144;88;25472;-76
2021/04/09 02:25:25;;;;;;;6.67;3.92;;;;;;;2.43;72.93;101279.39;1588343;88;21424;-76
2021/04/09 02:27:53;;;;;;;5.40;3.00;;;;;;;2.41;72.93;101271.24;1599524;88;21148;-76
2021/04/09 02:30:21;;;;;;;7.78;3.75;;;;;;;2.41;72.94;101267.00;1584082;89;21177;-76
2021/04/09 02:32:51;;;;;;;11.57;5.10;;;;;;;2.41;72.94;101263.17;1574022;88;21210;-76
2021/04/09 02:35:17;;;;;;;;;;;;;;;2.41;72.93;101259.76;1587654;88;21678;-75
2021/04/09 02:37:52;;;;;;;6.65;3.52;;;;;;;2.41;72.89;101255.93;1581721;88;20580;-75
2021/04/09 02:40:25;;;;;;;9.40;3.80;;;;;;;2.39;72.89;101250.78;1578662;88;21766;-75
2021/04/09 02:42:52;;;;;;;7.60;4.70;;;;;;;2.36;72.87;101253.25;1574404;88;21492;-76
2021/04/09 02:45:24;;;;;;;8.68;4.60;;;;;;;2.35;72.88;101251.93;1592265;88;21713;-76
2021/04/09 02:47:53;;;;;;;11.55;4.80;;;;;;;2.34;72.88;101247.23;1568626;89;21244;-76
2021/04/09 02:50:36;;;;;;;7.87;4.83;;;;;;;2.30;72.84;101241.59;1581915;89;22107;-76
2021/04/09 02:53:13;;;;;;;9.60;5.08;;;;;;;2.26;72.83;101240.65;1590543;88;21789;-75
2021/04/09 02:55:46;;;;;;;8.90;5.03;;;;;;;2.19;72.78;101244.27;1586377;88;22093;-74
2021/04/09 02:58:19;;;;;;;7.50;4.70;;;;;;;2.15;72.83;101239.89;1579857;88;21622;-74
2021/04/09 03:00:48;;;;;;;7.30;5.03;;;;;;;2.08;72.83;101235.47;1586350;88;21178;-74
2021/04/09 03:03:17;;;;;;;11.95;5.30;;;;;;;2.05;72.82;101237.94;1586489;88;22262;-76
2021/04/09 03:05:45;;;;;;;10.15;5.17;;;;;;;1.97;72.80;101232.20;1573811;88;21630;-75
2021/04/09 03:08:15;;;;;;;13.48;5.42;;;;;;;1.92;72.81;101233.76;1566383;89;21230;-75
2021/04/09 03:10:42;;;;;;;8.88;5.53;;;;;;;1.88;72.85;101228.52;1553682;91;21242;-75
2021/04/09 03:13:15;;;;;;;9.83;5.85;;;;;;;1.85;72.85;101224.61;1542211;91;21696;-75
2021/04/09 03:15:54;;;;;;;12.55;5.70;;;;;;;1.78;72.83;101224.84;1540162;91;21606;-75
2021/04/09 03:18:32;;;;;;;11.40;5.83;;;;;;;1.74;72.82;101225.98;1562438;91;21800;-75
2021/04/09 03:20:58;;;;;;;10.60;5.95;;;;;;;1.68;72.83;101223.25;1556542;89;21598;-75
2021/04/09 03:23:24;;;;;;;12.78;6.22;;;;;;;1.62;72.86;101220.97;1548019;91;21697;-75
2021/04/09 03:25:54;;;;;;;11.22;6.30;;;;;;;1.56;72.85;101220.78;1546914;91;21671;-75
2021/04/09 03:28:21;;;;;;;11.28;6.20;;;;;;;1.50;72.85;101214.67;1563174;91;21237;-75
2021/04/09 03:30:50;;;;;;;9.28;5.95;;;;;;;1.45;72.87;101217.08;1565569;91;21683;-75
2021/04/09 03:33:24;;;;;;;15.25;5.95;;;;;;;1.40;72.88;101217.75;1530976;91;21705;-74
2021/04/09 03:35:51;;;;;;;11.50;6.03;;;;;;;1.35;72.88;101212.92;1553842;91;21699;-74
2021/04/09 03:38:18;;;;;;;;;;;;;;;1.30;72.87;101211.10;1552845;91;21688;-74
2021/04/09 03:40:46;;;;;;;12.98;6.08;;;;;;;1.27;72.93;101216.09;1557300;91;20564;-74
2021/04/09 03:43:14;;;;;;;9.75;5.55;;;;;;;1.24;72.92;101210.05;1558334;91;21109;-74
2021/04/09 03:45:41;;;;;;;10.15;5.35;;;;;;;1.19;72.89;101206.08;1565417;89;21804;-74
2021/04/09 03:48:08;;;;;;;12.80;6.60;;;;;;;1.16;72.91;101204.70;1558884;91;21663;-74
2021/04/09 03:50:35;;;;;;;10.00;6.00;;;;;;;1.12;72.93;101201.61;1551708;91;21220;-74
2021/04/09 03:53:03;;;;;;;10.93;6.00;;;;;;;1.11;72.91;101190.96;1569230;91;21673;-74
2021/04/09 03:55:33;;;;;;;11.08;5.95;;;;;;;1.07;72.90;101192.09;1552966;91;21656;-74
2021/04/09 03:57:59;;;;;;;14.85;6.58;;;;;;;1.04;72.94;101191.58;1541841;91;21580;-75
2021/04/09 04:00:25;;;;;;;12.73;6.60;;;;;;;1.01;72.94;101187.70;1563860;91;21203;-76
2021/04/09 04:02:53;;;;;;;12.55;5.87;;;;;;;0.98;72.94;101183.78;1565303;91;21555;-75
2021/04/09 04:05:20;;;;;;;12.98;6.17;;;;;;;0.97;72.94;101188.42;1545591;91;21181;-75
2021/04/09 04:07:47;;;;;;;10.93;6.20;;;;;;;0.95;73.00;101182.00;1570476;88;22035;-75
2021/04/09 04:10:16;;;;;;;13.68;6.40;;;;;;;0.93;72.93;101196.36;1598733;88;21198;-75
2021/04/09 04:12:43;;;;;;;12.63;6.78;;;;;;;0.92;72.99;101184.45;1606988;88;20972;-75
2021/04/09 04:15:15;;;;;;;10.10;5.95;;;;;;;0.92;72.99;101191.23;1616749;88;21546;-75
2021/04/09 04:20:07;;;;;;;10.13;6.53;;;;;;;0.94;73.03;101178.13;1881401;75;23013;-76
2021/04/09 04:22:34;;;;;;;13.30;6.37;;;;;;;0.90;73.04;101182.67;1850981;75;21378;-76
2021/04/09 04:25:00;;;;;;;10.72;6.53;;;;;;;0.90;73.05;101177.17;1790210;78;22084;-77
2021/04/09 04:27:26;;;;;;;12.07;5.78;;;;;;;0.89;72.99;101180.53;1817914;78;25794;-77
2021/04/09 04:30:04;;;;;;;7.85;5.90;;;;;;;0.88;73.02;101175.39;1809474;78;21441;-76
2021/04/09 04:32:30;;;;;;;12.37;5.97;;;;;;;0.90;73.05;101172.48;1775141;79;21491;-76
2021/04/09 04:34:57;;;;;;;10.75;7.03;;;;;;;0.91;73.04;101178.04;1818823;78;21479;-76
2021/04/09 04:37:23;;;;;;;10.45;5.87;;;;;;;0.92;73.03;101181.91;1799940;78;21505;-76
2021/04/09 04:39:49;;;;;;;12.65;6.75;;;;;;;0.94;73.01;101175.59;1779598;80;21041;-76
2021/04/09 04:42:15;;;;;;;12.18;6.67;;;;;;;0.95;73.02;101176.91;1738312;81;21055;-76
2021/04/09 04:44:42;;;;;;;9.68;6.05;;;;;;;0.99;73.03;101180.42;1762881;80;22172;-76
2021/04/09 04:47:08;;;;;;;8.75;6.53;;;;;;;1.02;73.07;101183.47;1752628;80;21706;-76
2021/04/09 04:49:34;;;;;;;11.70;7.05;;;;;;;1.06;73.04;101178.49;1749371;80;21491;-76
2021/04/09 04:52:01;;;;;;;15.20;6.47;;;;;;;1.09;73.02;101175.17;1748588;79;21667;-76
2021/04/09 04:54:27;;;;;;;10.95;6.58;;;;;;;1.02;72.96;101160.14;1750642;79;21185;-76
2021/04/09 04:56:53;;;;;;;9.70;6.47;;;;;;;1.18;73.06;101181.83;1744977;80;21228;-76
2021/04/09 04:59:20;;;;;;;9.95;5.80;;;;;;;1.23;73.08;101179.88;1753594;80;21183;-76
2021/04/09 05:01:46;;;;;;;16.95;7.20;;;;;;;1.31;73.06;101182.66;1762612;80;21230;-76
2021/04/09 05:04:16;;;;;;;12.90;6.83;;;;;;;1.39;73.03;101181.63;1750175;79;22129;-77
2021/04/09 05:06:42;;;;;;;12.53;6.47;;;;;;;1.49;73.10;101181.95;1746762;79;22138;-80
2021/04/09 05:09:09;;;;;;;12.40;6.53;;;;;;;1.64;73.14;101183.64;1760631;79;20968;-80
2021/04/09 05:11:49;;;;;;;11.60;6.65;;;;;;;1.80;73.14;101184.95;1749784;79;21086;-80
2021/04/09 05:14:15;;;;;;;8.63;6.05;;;;;;;2.03;73.14;101187.30;1742300;79;22174;-80
2021/04/09 05:16:42;;;;;;;12.07;6.60;;;;;;;2.23;73.17;101189.53;1758367;80;21948;-80
2021/04/09 05:19:11;;;;;;;7.78;6.00;;;;;;;2.45;73.13;101185.00;1762147;80;21979;-80
2021/04/09 05:21:38;;;;;;;12.13;6.47;;;;;;;2.70;73.19;101186.05;1757442;80;21683;-80
2021/04/09 05:24:05;;;;;;;9.35;5.47;;;;;;;2.98;73.16;101188.88;1731566;80;21667;-80
2021/04/09 05:26:35;;;;;;;12.15;6.80;;;;;;;3.25;72.99;101180.96;1733576;81;21330;-80
2021/04/09 05:29:02;;;;;;;9.80;6.35;;;;;;;3.46;73.01;101179.30;1756666;80;21536;-80
2021/04/09 05:31:28;;;;;;;9.63;6.10;;;;;;;3.71;73.06;101178.97;1759511;79;21042;-80
2021/04/09 05:33:58;;;;;;;8.73;5.72;;;;;;;4.01;73.06;101176.17;1757739;79;21265;-80
2021/04/09 05:36:24;;;;;;;;;;;;;;;4.21;72.92;101158.19;1760931;80;21230;-80
2021/04/09 05:38:50;;;;;;;14.07;5.92;;;;;;;4.45;72.70;101163.31;1749948;80;20737;-79
2021/04/09 05:41:17;;;;;;;12.25;5.70;;;;;;;4.65;72.80;101157.70;1754053;79;22179;-79
2021/04/09 05:43:43;;;;;;;11.28;5.97;;;;;;;4.81;72.73;101164.33;1760165;80;21740;-80
2021/04/09 05:46:10;;;;;;;12.63;6.03;;;;;;;4.81;72.40;101160.06;1783182;78;21652;-80
2021/04/09 05:48:36;;;;;;;8.95;6.45;;;;;;;4.86;72.58;101159.72;1763408;79;21558;-80
2021/04/09 05:51:02;;;;;;;8.58;5.67;;;;;;;5.05;72.66;101157.03;1765306;79;21187;-80
2021/04/09 05:53:28;;;;;;;10.15;5.92;;;;;;;5.16;72.57;101154.20;1762879;79;21656;-78
2021/04/09 05:55:55;;;;;;;11.90;6.87;;;;;;;5.30;72.54;101142.84;1765893;80;21610;-78
2021/04/09 05:58:21;;;;;;;8.83;5.85;;;;;;;5.45;72.35;101140.91;1765349;79;21667;-78
2021/04/09 06:01:00;;;;;;;9.88;5.60;;;;;;;5.58;72.41;101139.80;1752413;79;21588;-78
2021/04/09 06:03:27;;;;;;;7.95;5.83;;;;;;;5.81;72.40;101142.63;1764863;79;21228;-77
2021/04/09 06:05:53;;;;;;;10.60;5.35;;;;;;;6.01;72.30;101138.17;1758900;79;22252;-77
2021/04/09 06:08:32;;;;;;;7.08;5.37;;;;;;;6.24;72.22;101132.41;1757580;80;21386;-77
2021/04/09 06:10:58;;;;;;;16.55;5.92;;;;;;;6.44;72.16;101133.88;1768264;79;22356;-77
2021/04/09 06:13:25;;;;;;;13.28;6.42;;;;;;;6.53;71.92;101131.41;1767041;79;22272;-77
2021/04/09 06:15:51;;;;;;;10.43;5.85;;;;;;;6.69;71.93;101136.67;1760046;79;21203;-77
2021/04/09 06:18:17;;;;;;;11.38;6.00;;;;;;;6.97;72.18;101134.30;1755104;79;21797;-77
2021/04/09 06:20:47;;;;;;;9.13;5.65;;;;;;;7.34;72.05;101127.20;1732795;81;21799;-78
2021/04/09 06:23:14;;;;;;;10.50;6.17;;;;;;;7.56;71.76;101121.31;1732622;81;21205;-77
2021/04/09 06:25:40;;;;;;;10.23;5.62;;;;;;;7.73;71.61;101120.11;1727055;81;21621;-77
2021/04/09 06:28:09;;;;;;;7.58;5.67;;;;;;;7.81;71.47;101114.52;1733175;81;21224;-76
2021/04/09 06:30:35;;;;;;;9.85;5.45;;;;;;;7.89;71.50;101105.97;1731107;82;21733;-76
2021/04/09 06:33:01;;;;;;;9.55;6.15;;;;;;;8.07;71.70;101105.59;1730800;81;21244;-77
2021/04/09 06:35:28;;;;;;;13.50;5.92;;;;;;;8.18;71.64;101098.31;1731635;82;21243;-77
2021/04/09 06:37:54;;;;;;;7.33;5.45;;;;;;;8.33;71.70;101104.34;1733988;81;27264;-77
2021/04/09 06:40:22;;;;;;;9.78;6.17;;;;;;;8.51;71.65;101099.21;1733551;81;21602;-78
2021/04/09 06:42:57;;;;;;;7.47;5.90;;;;;;;8.64;71.34;101072.58;1731956;81;21226;-77
2021/04/09 06:45:31;;;;;;;9.00;5.75;;;;;;;9.06;71.43;101095.27;1707525;82;21864;-77
2021/04/09 06:47:57;;;;;;;8.23;5.58;;;;;;;9.37;71.30;101091.72;1736333;82;21142;-77
2021/04/09 06:50:24;;;;;;;10.13;6.08;;;;;;;9.56;71.14;101086.05;1724379;82;21140;-77
2021/04/09 06:52:56;;;;;;;10.48;5.70;;;;;;;9.78;71.17;101086.81;1730011;81;21255;-77
2021/04/09 06:55:23;;;;;;;7.85;5.30;;;;;;;9.85;70.94;101092.38;1735579;81;20956;-77
2021/04/09 06:57:54;;;;;;;11.73;5.35;;;;;;;9.90;71.20;101082.41;1702117;81;21794;-78
2021/04/09 07:00:29;;;;;;;8.05;5.78;;;;;;;9.93;71.12;101082.39;1729965;81;20968;-78
2021/04/09 07:02:58;;;;;;;9.38;5.60;;;;;;;9.98;70.97;101086.23;1729550;81;21231;-77
2021/04/09 07:05:26;;;;;;;7.10;5.00;;;;;;;9.97;70.97;101070.31;1732526;81;21201;-77
2021/04/09 07:07:54;;;;;;;6.87;5.08;;;;;;;9.91;71.07;101082.83;1733469;82;21209;-77
2021/04/09 07:10:22;;;;;;;12.85;5.95;;;;;;;10.01;70.89;101078.91;1731536;82;21091;-78
2021/04/09 07:13:05;;;;;;;8.33;5.22;;;;;;;10.22;70.67;101078.80;1731856;81;21255;-78
2021/04/09 07:15:46;;;;;;;10.32;5.17;;;;;;;10.33;70.38;101065.36;1729808;81;22316;-77
2021/04/09 07:18:17;;;;;;;8.35;5.47;;;;;;;10.33;70.51;101070.53;1744395;80;21467;-78
2021/04/09 07:20:45;;;;;;;8.70;5.12;;;;;;;10.23;69.92;101063.28;1749284;80;21878;-76
2021/04/09 07:23:29;;;;;;;8.85;5.87;;;;;;;10.23;70.06;101062.42;1773963;79;21658;-76
2021/04/09 07:25:56;;;;;;;8.78;4.83;;;;;;;10.35;70.19;101058.45;1755980;80;21209;-76
2021/04/09 07:28:24;;;;;;;;;;;;;;;10.41;69.90;101051.05;1794341;78;21217;-77
2021/04/09 07:30:55;;;;;;;7.85;5.10;;;;;;;10.32;69.08;101053.75;1754877;80;20297;-77
2021/04/09 07:33:24;;;;;;;6.03;4.67;;;;;;;10.34;69.69;101042.53;1791684;79;21119;-78
2021/04/09 07:36:00;;;;;;;7.85;5.47;;;;;;;10.47;69.52;101031.61;1759402;80;21314;-78
2021/04/09 07:38:36;;;;;;;7.22;4.97;;;;;;;10.38;69.19;101032.58;1780219;78;20979;-77
2021/04/09 07:41:11;;;;;;;6.58;4.90;;;;;;;10.32;69.12;101023.59;1791174;79;21463;-77
2021/04/09 07:43:42;;;;;;;7.10;5.10;;;;;;;10.28;69.12;101026.63;1784524;79;21118;-77
2021/04/09 07:46:21;;;;;;;7.60;5.50;;;;;;;10.30;69.04;101020.16;1765838;80;21317;-77
2021/04/09 07:49:05;;;;;;;6.50;5.53;;;;;;;10.04;68.58;101018.17;1766259;79;21444;-77
2021/04/09 07:51:31;;;;;;;9.18;5.35;;;;;;;9.88;68.62;101023.87;1791303;78;21471;-77
2021/04/09 07:54:12;;;;;;;10.55;5.62;;;;;;;9.80;68.72;101016.64;1791655;78;21262;-78
2021/04/09 07:56:45;;;;;;;10.28;5.65;;;;;;;9.92;68.60;101024.28;1764114;80;21951;-77
2021/04/09 07:59:12;;;;;;;9.28;5.62;;;;;;;9.93;68.35;101017.81;1761120;80;21167;-77
2021/04/09 08:01:48;;;;;;;7.72;5.53;;;;;;;9.83;68.25;101013.61;1788811;79;21004;-76
2021/04/09 08:04:15;;;;;;;9.87;5.53;;;;;;;9.93;68.36;101004.89;1793643;79;21087;-76
2021/04/09 08:06:41;;;;;;;10.03;5.45;;;;;;;9.93;68.36;101004.89;1759634;80;21639;-76
2021/04/09 08:09:07;;;;;;;7.15;4.55;;;;;;;10.11;68.30;101003.05;1761450;79;20999;-77
2021/04/09 08:11:38;;;;;;;9.23;5.95;;;;;;;10.23;67.94;100997.81;1767605;79;21076;-76
2021/04/09 08:14:09;;;;;;;9.70;5.45;;;;;;;10.33;67.92;100994.28;1792413;78;21224;-76
2021/04/09 08:16:45;;;;;;;8.00;5.85;;;;;;;10.48;67.68;100987.65;1788498;78;20984;-77
2021/04/09 08:19:20;;;;;;;10.58;6.08;;;;;;;10.60;67.60;100985.38;1760884;80;21412;-76
2021/04/09 08:21:58;;;;;;;8.55;5.62;;;;;;;10.65;67.36;100987.92;1781802;80;20997;-77
2021/04/09 08:24:32;;;;;;;10.00;6.42;;;;;;;10.60;67.59;100988.83;1779972;80;21247;-77
2021/04/09 08:26:59;;;;;;;7.42;5.37;;;;;;;10.52;67.42;100990.63;1781436;79;21207;-77
2021/04/09 08:29:27;;;;;;;10.25;5.72;;;;;;;10.64;67.26;100990.09;1743015;81;21225;-77
2021/04/09 08:31:54;;;;;;;10.15;5.83;;;;;;;10.58;67.01;100972.47;1769704;80;21185;-77
2021/04/09 08:34:22;;;;;;;7.50;5.22;;;;;;;10.49;67.07;100980.31;1781299;79;21509;-76
2021/04/09 08:36:51;;;;;;;9.23;5.45;;;;;;;10.33;66.99;100970.16;1783192;78;21195;-76
2021/04/09 08:39:19;;;;;;;7.97;5.67;;;;;;;10.34;67.01;100972.73;1717802;81;21597;-75
2021/04/09 08:41:53;;;;;;;10.72;5.62;;;;;;;10.24;66.72;100965.93;1761538;80;21728;-77
2021/04/09 08:44:21;;;;;;;;;;;;;;;10.42;66.56;100961.00;1785137;79;21592;-76
2021/04/09 08:46:48;;;;;;;8.45;4.87;;;;;;;10.78;65.93;100946.83;1781978;79;21009;-76
2021/04/09 08:49:16;;;;;;;7.17;5.60;;;;;;;11.08;66.49;100951.61;1787260;78;21225;-77
2021/04/09 08:51:44;;;;;;;8.50;5.28;;;;;;;11.32;66.28;100948.28;1784847;80;21355;-76
2021/04/09 08:54:28;;;;;;;7.15;5.60;;;;;;;11.20;66.09;100950.16;1784330;80;21865;-75
2021/04/09 08:57:00;;;;;;;8.95;6.22;;;;;;;10.98;66.35;100942.68;1779668;79;21199;-75
2021/04/09 08:59:43;;;;;;;6.65;5.25;;;;;;;10.68;65.88;100954.27;1749394;81;21103;-75
2021/04/09 09:02:25;;;;;;;7.20;6.40;;;;;;;10.69;66.30;100942.61;1747891;80;21181;-77
2021/04/09 09:05:05;;;;;;;10.23;5.92;;;;;;;10.78;66.21;100947.69;1787910;78;21208;-76
2021/04/09 09:07:52;;;;;;;13.98;6.75;;;;;;;10.61;65.87;100942.70;1781754;78;21634;-76
2021/04/09 09:10:42;;;;;;;12.37;7.10;;;;;;;10.43;65.75;100944.17;1780723;78;22364;-75
2021/04/09 09:13:22;;;;;;;7.03;5.70;;;;;;;10.34;65.56;100936.55;1783307;78;21452;-76
2021/04/09 09:15:55;;;;;;;14.98;6.50;;;;;;;10.22;65.34;100936.66;1777901;80;21213;-76
2021/04/09 09:18:31;;;;;;;9.78;7.08;;;;;;;10.04;65.03;100931.63;1674923;80;182519;-76
2021/04/09 09:21:23;;;;;;;9.80;6.67;;;;;;;10.00;65.02;100924.33;1637273;85;21226;-76
2021/04/09 09:23:57;;;;;;;12.73;6.95;;;;;;;9.89;64.62;100931.31;1633174;85;21491;-76
2021/04/09 09:26:38;;;;;;;8.48;6.42;;;;;;;9.78;64.64;100928.84;1642611;85;21169;-76
2021/04/09 09:29:21;;;;;;;7.87;6.03;;;;;;;9.77;64.45;100910.34;1639028;86;21041;-77
2021/04/09 09:32:02;;;;;;;12.20;6.70;;;;;;;9.75;64.25;100913.81;1638791;85;21023;-77
2021/04/09 09:34:40;;;;;;;10.03;6.67;;;;;;;9.76;64.30;100911.65;1635782;85;21144;-77
2021/04/09 09:37:19;;;;;;;9.25;6.20;;;;;;;9.84;64.13;100898.23;1632915;85;21998;-78
2021/04/09 09:39:58;;;;;;;10.60;6.87;;;;;;;9.93;63.90;100898.98;1638178;85;21208;-78
2021/04/09 09:42:30;;;;;;;8.88;5.78;;;;;;;10.03;63.75;100895.03;1667544;84;21033;-77
2021/04/09 09:45:00;;;;;;;8.08;6.40;;;;;;;10.13;63.64;100883.74;1635790;86;21240;-78
2021/04/09 09:47:41;;;;;;;11.78;7.05;;;;;;;10.13;63.49;100884.59;1614695;87;21309;-77
2021/04/09 09:50:23;;;;;;;9.33;6.92;;;;;;;10.10;63.24;100887.64;1619880;87;21965;-77
2021/04/09 09:52:59;;;;;;;8.73;6.00;;;;;;;10.12;63.19;100883.31;1613314;86;21194;-77
2021/04/09 09:55:43;;;;;;;15.60;7.22;;;;;;;10.16;63.22;100881.98;1625673;86;21602;-77
2021/04/09 09:58:19;;;;;;;9.55;6.35;;;;;;;10.14;62.90;100877.70;1609316;87;21725;-77
2021/04/09 10:00:56;;;;;;;9.80;6.58;;;;;;;10.18;63.09;100869.91;1610310;87;21173;-77
2021/04/09 10:03:39;;;;;;;11.43;6.47;;;;;;;10.20;62.79;100864.75;1617926;86;21638;-77
2021/04/09 10:06:13;;;;;;;10.40;6.15;;;;;;;10.18;62.58;100875.51;1623456;87;21169;-77
2021/04/09 10:08:42;;;;;;;11.45;6.97;;;;;;;10.16;62.50;100870.35;1621888;87;21186;-77
2021/04/09 10:11:18;;;;;;;13.18;7.03;;;;;;;10.17;62.47;100868.19;1618889;87;21243;-77
2021/04/09 10:13:48;;;;;;;9.75;6.97;;;;;;;10.19;62.40;100863.01;1623441;87;21264;-76
2021/04/09 10:16:19;;;;;;;14.50;6.70;;;;;;;10.27;62.47;100857.36;1620278;87;21008;-77
2021/04/09 10:18:53;;;;;;;10.72;6.40;;;;;;;10.31;62.25;100840.09;1596262;87;21181;-77
2021/04/09 10:21:31;;;;;;;11.12;6.62;;;;;;;10.40;62.33;100851.14;1632779;86;21246;-76
2021/04/09 10:24:17;;;;;;;9.30;6.08;;;;;;;10.51;62.14;100860.92;1660534;84;21003;-76
2021/04/09 10:26:58;;;;;;;8.68;5.80;;;;;;;10.61;61.96;100853.48;1660890;82;21453;-76
2021/04/09 10:29:37;;;;;;;11.15;6.80;;;;;;;10.68;61.78;100849.52;1660151;84;21212;-77
2021/04/09 10:32:07;;;;;;;9.75;6.10;;;;;;;10.72;61.55;100852.05;1659725;84;21686;-76
2021/04/09 10:34:35;;;;;;;11.28;6.83;;;;;;;10.75;61.49;100853.31;1658836;84;21795;-77
2021/04/09 10:37:03;;;;;;;13.88;6.60;;;;;;;10.80;61.54;100850.66;1662437;83;21240;-77
2021/04/09 10:39:30;;;;;;;9.68;6.03;;;;;;;10.91;61.38;100848.80;1657179;84;21237;-76
2021/04/09 10:42:04;;;;;;;10.58;6.12;;;;;;;10.98;61.33;100851.69;1665839;84;21720;-76
2021/04/09 10:44:31;;;;;;;11.57;6.03;;;;;;;11.02;61.06;100839.56;1644787;85;21247;-77
2021/04/09 10:47:01;;;;;;;8.78;6.47;;;;;;;11.01;61.07;100846.47;1663379;84;21539;-77
2021/04/09 10:49:32;;;;;;;8.50;6.33;;;;;;;11.05;60.88;100846.84;1663530;84;21253;-77
2021/04/09 10:52:09;;;;;;;11.63;5.80;;;;;;;11.06;60.87;100841.22;1688138;83;21107;-77
2021/04/09 10:54:40;;;;;;;7.35;5.70;;;;;;;11.02;60.80;100847.32;1628252;86;22283;-76
2021/04/09 10:57:11;;;;;;;7.62;5.80;;;;;;;10.98;60.48;100838.75;1660160;84;21256;-77
2021/04/09 10:59:41;;;;;;;11.83;5.65;;;;;;;10.95;60.44;100834.91;1660418;85;21216;-77
2021/04/09 11:02:22;;;;;;;9.35;5.58;;;;;;;11.02;60.38;100840.41;1663496;85;21367;-78
2021/04/09 11:04:55;;;;;;;5.78;5.17;;;;;;;11.05;60.15;100829.16;1660528;84;21141;-78
2021/04/09 11:07:48;;;;;;;8.05;5.92;;;;;;;11.13;60.26;100830.77;1659509;85;21993;-78
2021/04/09 11:10:36;;;;;;;6.28;5.17;;;;;;;11.20;60.10;100818.15;1660372;84;21152;-77
2021/04/09 11:13:07;;;;;;;9.40;5.37;;;;;;;11.26;59.88;100815.91;1658977;85;21788;-77
2021/04/09 11:15:42;;;;;;;6.87;5.28;;;;;;;11.25;59.92;100817.64;1667592;85;21647;-76
2021/04/09 11:18:08;;;;;;;6.25;5.20;;;;;;;11.30;59.92;100830.95;1666119;84;22009;-77
2021/04/09 11:20:40;;;;;;;11.10;5.78;;;;;;;11.28;59.71;100812.41;1666040;85;22313;-77
2021/04/09 11:23:10;;;;;;;10.35;6.15;;;;;;;11.20;59.41;100816.00;1681155;83;21630;-76
2021/04/09 11:25:44;;;;;;;6.58;5.05;;;;;;;11.12;59.32;100807.05;1684081;83;21177;-76
2021/04/09 11:28:27;;;;;;;5.90;5.15;;;;;;;11.17;59.52;100801.38;1684599;84;21459;-76
2021/04/09 11:31:04;;;;;;;10.80;5.75;;;;;;;11.28;59.49;100807.23;1681685;83;21513;-77
2021/04/09 11:33:40;;;;;;;7.87;5.03;;;;;;;11.39;59.26;100797.16;1683284;83;21224;-76
2021/04/09 11:36:23;;;;;;;7.50;5.10;;;;;;;11.52;59.34;100796.04;1682525;84;21736;-76
2021/04/09 11:38:54;;;;;;;9.00;5.37;;;;;;;11.68;59.31;100791.02;1680412;83;21169;-77
2021/04/09 11:41:32;;;;;;;8.53;5.67;;;;;;;11.79;58.89;100780.48;1682830;84;21180;-76
2021/04/09 11:44:01;;;;;;;8.13;5.30;;;;;;;11.70;58.71;100779.33;1682981;83;21012;-77
2021/04/09 11:46:37;;;;;;;11.57;5.17;;;;;;;11.69;58.79;100775.03;1679946;83;21147;-76
2021/04/09 11:49:06;;;;;;;9.30;5.95;;;;;;;11.77;59.04;100777.08;1682625;84;21134;-76
2021/04/09 11:51:35;;;;;;;9.60;5.92;;;;;;;11.79;58.57;100773.57;1675412;84;21010;-79